createdAt,value
2023-02-18T00:03:50.317Z,51.92
2023-02-18T00:08:57.138Z,51.71
2023-02-18T00:14:03.734Z,51.72
2023-02-18T00:19:12.276Z,52.75
2023-02-18T00:24:18.378Z,50.94
2023-02-18T00:29:23.086Z,51.60
2023-02-18T00:34:29.038Z,52.96
2023-02-18T00:39:35.373Z,53.42
2023-02-18T00:44:43.578Z,51.33
2023-02-18T00:49:50.833Z,51.96
2023-02-18T00:54:56.440Z,52.38
2023-02-18T01:00:01.487Z,55.87
2023-02-18T01:05:08.195Z,52.33
2023-02-18T01:10:14.917Z,51.79
2023-02-18T01:15:20.458Z,51.08
2023-02-18T01:20:26.168Z,51.53
2023-02-18T01:25:32.927Z,50.97
2023-02-18T01:30:39.775Z,50.50
2023-02-18T01:35:47.267Z,51.45
2023-02-18T01:40:55.712Z,50.54
2023-02-18T01:46:17.698Z,50.01
2023-02-18T01:51:33.386Z,50.09
2023-02-18T01:56:46.315Z,52.61
2023-02-18T02:01:52.988Z,51.45
2023-02-18T02:06:59.764Z,52.20
2023-02-18T02:12:23.278Z,51.44
2023-02-18T02:17:38.464Z,51.86
2023-02-18T02:23:04.705Z,51.21
2023-02-18T02:28:25.715Z,51.18
2023-02-18T02:33:48.776Z,51.31
2023-02-18T02:39:01.719Z,51.07
2023-02-18T02:44:24.011Z,49.27
2023-02-18T02:49:30.970Z,50.70
2023-02-18T02:54:37.926Z,50.61
2023-02-18T02:59:48.592Z,50.43
2023-02-18T03:05:04.005Z,49.92
2023-02-18T03:10:20.708Z,49.94
2023-02-18T03:15:43.599Z,49.94
2023-02-18T03:20:57.767Z,50.17
2023-02-18T03:26:05.378Z,49.91
2023-02-18T03:31:16.703Z,50.97
2023-02-18T03:36:23.964Z,49.95
2023-02-18T03:41:29.423Z,50.31
2023-02-18T03:46:37.410Z,50.57
2023-02-18T03:51:43.239Z,51.04
2023-02-18T03:56:49.123Z,51.17
2023-02-18T04:01:55.361Z,50.61
2023-02-18T04:07:00.507Z,50.51
2023-02-18T04:12:06.990Z,50.73
2023-02-18T04:17:12.067Z,50.25
2023-02-18T04:22:17.224Z,49.93
2023-02-18T04:27:22.310Z,49.36
2023-02-18T04:32:32.059Z,49.49
2023-02-18T04:37:39.728Z,49.15
2023-02-18T04:42:44.393Z,48.76
2023-02-18T04:47:50.340Z,49.06
2023-02-18T04:52:55.447Z,49.55
2023-02-18T04:58:00.489Z,49.14
2023-02-18T05:03:06.336Z,49.16
2023-02-18T05:08:12.471Z,48.92
2023-02-18T05:13:18.331Z,48.70
2023-02-18T05:18:23.066Z,49.20
2023-02-18T05:23:28.563Z,49.13
2023-02-18T05:28:33.858Z,49.43
2023-02-18T05:33:39.734Z,50.82
2023-02-18T05:38:45.048Z,49.52
2023-02-18T05:44:10.013Z,49.29
2023-02-18T05:49:15.061Z,49.57
2023-02-18T05:54:21.527Z,49.37
2023-02-18T05:59:27.258Z,50.20
2023-02-18T06:04:33.192Z,48.94
2023-02-18T06:09:39.319Z,48.85
2023-02-18T06:14:45.451Z,49.28
2023-02-18T06:19:52.542Z,50.41
2023-02-18T06:24:57.686Z,49.79
2023-02-18T06:30:02.101Z,51.96
2023-02-18T06:35:08.478Z,52.29
2023-02-18T06:40:14.940Z,53.92
2023-02-18T06:45:20.980Z,51.75
2023-02-18T06:50:27.058Z,53.80
2023-02-18T06:55:32.385Z,52.36
2023-02-18T07:00:37.617Z,52.00
2023-02-18T07:05:43.748Z,52.16
2023-02-18T07:10:49.339Z,50.78
2023-02-18T07:15:53.957Z,49.96
2023-02-18T07:21:00.889Z,50.16
2023-02-18T07:26:15.784Z,49.27
2023-02-18T07:31:21.174Z,49.92
2023-02-18T07:36:25.334Z,48.90
2023-02-18T07:41:30.457Z,49.43
2023-02-18T07:46:36.381Z,49.60
2023-02-18T07:51:41.671Z,48.85
2023-02-18T07:56:48.145Z,47.83
2023-02-18T08:01:52.925Z,35.76
2023-02-18T08:06:57.558Z,35.20
2023-02-18T08:12:02.215Z,33.31
2023-02-18T08:17:07.560Z,32.10
2023-02-18T08:22:12.125Z,31.88
2023-02-18T08:27:17.770Z,32.88
2023-02-18T08:32:22.493Z,29.86
2023-02-18T08:37:27.229Z,29.51
2023-02-18T08:42:31.871Z,28.59
2023-02-18T08:48:17.250Z,28.28
2023-02-18T08:53:05.645Z,28.55
2023-02-18T08:58:11.718Z,28.34
2023-02-18T09:03:17.183Z,27.85
2023-02-18T09:08:22.942Z,26.72
2023-02-18T09:13:32.147Z,26.79
2023-02-18T09:18:37.549Z,27.31
2023-02-18T09:23:42.561Z,24.69
2023-02-18T09:28:48.058Z,22.80
2023-02-18T09:33:53.528Z,23.03
2023-02-18T09:38:59.472Z,23.06
2023-02-18T09:44:23.382Z,22.89
2023-02-18T09:49:59.316Z,23.45
2023-02-18T09:55:21.811Z,24.28
2023-02-18T10:00:45.988Z,23.57
2023-02-18T10:05:58.951Z,24.54
2023-02-18T10:11:04.065Z,24.36
2023-02-18T10:16:09.428Z,23.27
2023-02-18T10:21:33.222Z,22.92
2023-02-18T10:26:41.978Z,25.15
2023-02-18T10:31:57.061Z,23.52
2023-02-18T10:37:27.655Z,22.53
2023-02-18T10:42:59.305Z,23.34
2023-02-18T10:48:29.357Z,22.78
2023-02-18T10:53:38.101Z,22.47
2023-02-18T10:58:48.730Z,23.26
2023-02-18T11:04:07.695Z,24.13
2023-02-18T11:09:28.626Z,24.54
2023-02-18T11:14:42.771Z,26.83
2023-02-18T11:20:01.137Z,24.74
2023-02-18T11:25:26.861Z,25.76
2023-02-18T11:30:42.492Z,26.75
2023-02-18T11:35:54.058Z,25.98
2023-02-18T11:41:11.546Z,24.30
2023-02-18T11:46:20.924Z,24.24
2023-02-18T11:51:31.130Z,24.35
2023-02-18T11:56:38.079Z,24.50
2023-02-18T12:01:54.702Z,26.38
2023-02-18T12:07:08.583Z,24.26
2023-02-18T12:12:21.306Z,26.13
2023-02-18T12:17:35.082Z,28.02
2023-02-18T12:22:44.619Z,29.20
2023-02-18T12:28:30.341Z,30.16
2023-02-18T12:34:01.957Z,29.19
2023-02-18T12:39:36.193Z,28.96
2023-02-18T12:44:47.038Z,30.01
2023-02-18T12:50:01.402Z,31.02
2023-02-18T12:55:28.989Z,31.98
2023-02-18T13:00:45.416Z,31.52
2023-02-18T13:06:15.012Z,31.79
2023-02-18T13:11:45.035Z,29.35
2023-02-18T13:17:00.252Z,29.67
2023-02-18T13:22:08.280Z,29.37
2023-02-18T13:27:13.453Z,29.62
2023-02-18T13:32:40.232Z,31.40
2023-02-18T13:38:04.168Z,30.83
2023-02-18T13:43:24.679Z,30.01
2023-02-18T13:48:32.092Z,30.20
2023-02-18T13:53:45.086Z,31.57
2023-02-18T13:58:57.566Z,30.54
2023-02-18T14:04:03.355Z,31.35
2023-02-18T14:09:14.297Z,31.35
2023-02-18T14:14:39.348Z,30.85
2023-02-18T14:19:44.179Z,30.86
2023-02-18T14:25:10.558Z,31.46
2023-02-18T14:30:26.749Z,31.09
2023-02-18T14:35:59.417Z,32.37
2023-02-18T14:41:14.047Z,32.57
2023-02-18T14:46:48.373Z,32.46
2023-02-18T14:51:57.600Z,33.33
2023-02-18T14:57:18.467Z,34.36
2023-02-18T15:02:33.069Z,34.26
2023-02-18T15:07:38.809Z,34.46
2023-02-18T15:12:45.109Z,34.96
2023-02-18T15:17:51.968Z,34.99
2023-02-18T15:22:57.571Z,34.85
2023-02-18T15:28:02.661Z,35.15
2023-02-18T15:33:16.851Z,35.00
2023-02-18T15:38:23.010Z,35.28
2023-02-18T15:43:29.776Z,35.53
2023-02-18T15:48:45.797Z,36.00
2023-02-18T15:53:54.899Z,36.26
2023-02-18T15:59:31.767Z,36.59
2023-02-18T16:04:42.741Z,36.21
2023-02-18T16:09:47.577Z,36.36
2023-02-18T16:14:52.582Z,36.82
2023-02-18T16:20:07.362Z,36.08
2023-02-18T16:25:15.939Z,36.66
2023-02-18T16:30:25.015Z,36.78
2023-02-18T16:35:47.507Z,35.79
2023-02-18T16:40:55.577Z,36.54
2023-02-18T16:46:19.549Z,36.40
2023-02-18T16:51:33.283Z,36.59
2023-02-18T16:56:37.836Z,36.38
2023-02-18T17:01:47.005Z,36.86
2023-02-18T17:06:52.753Z,37.24
2023-02-18T17:11:58.311Z,37.13
2023-02-18T17:17:02.360Z,36.45
2023-02-18T17:22:07.351Z,36.32
2023-02-18T17:27:13.366Z,36.71
2023-02-18T17:32:18.010Z,36.71
2023-02-18T17:37:22.700Z,36.59
2023-02-18T17:42:27.394Z,35.04
2023-02-18T17:47:31.976Z,35.08
2023-02-18T17:52:38.579Z,34.97
2023-02-18T17:57:43.236Z,35.14
2023-02-18T18:02:47.877Z,34.98
2023-02-18T18:07:53.083Z,34.43
2023-02-18T18:12:58.547Z,34.54
2023-02-18T18:18:03.455Z,35.30
2023-02-18T18:23:09.630Z,34.85
2023-02-18T18:28:14.512Z,34.03
2023-02-18T18:33:20.224Z,35.12
2023-02-18T18:38:27.065Z,34.12
2023-02-18T18:43:36.795Z,33.86
2023-02-18T18:48:41.419Z,34.21
2023-02-18T18:53:46.275Z,33.39
2023-02-18T18:58:51.480Z,33.98
2023-02-18T19:03:57.769Z,34.31
2023-02-18T19:09:02.442Z,34.23
2023-02-18T19:14:07.172Z,33.73
2023-02-18T19:19:13.713Z,33.88
2023-02-18T19:24:18.374Z,34.16
2023-02-18T19:29:25.050Z,33.88
2023-02-18T19:34:29.671Z,33.25
2023-02-18T19:39:36.247Z,33.53
2023-02-18T19:44:41.025Z,33.41
2023-02-18T19:49:45.842Z,32.24
2023-02-18T19:54:50.573Z,32.16
2023-02-18T19:59:55.204Z,31.67
2023-02-18T20:05:05.415Z,31.71
2023-02-18T20:10:15.013Z,31.75
2023-02-18T20:15:20.666Z,31.50
2023-02-18T20:20:25.982Z,31.34
2023-02-18T20:25:30.623Z,30.86
2023-02-18T20:30:35.408Z,31.49
2023-02-18T20:35:40.033Z,30.93
2023-02-18T20:40:44.628Z,31.29
2023-02-18T20:45:49.315Z,31.96
2023-02-18T20:50:53.898Z,30.70
2023-02-18T20:55:59.474Z,30.72
2023-02-18T21:01:10.215Z,31.28
2023-02-18T21:06:17.335Z,31.83
2023-02-18T21:11:27.489Z,31.47
2023-02-18T21:16:51.059Z,31.04
2023-02-18T21:21:55.682Z,31.69
2023-02-18T21:27:00.438Z,31.42
2023-02-18T21:32:05.205Z,31.77
2023-02-18T21:37:11.137Z,30.91
2023-02-18T21:42:15.200Z,31.25
2023-02-18T21:47:19.707Z,30.99
2023-02-18T21:52:27.516Z,30.76
2023-02-18T21:57:32.100Z,31.62
2023-02-18T22:02:37.220Z,31.31
2023-02-18T22:07:43.075Z,30.96
2023-02-18T22:12:47.721Z,31.55
2023-02-18T22:17:52.378Z,31.54
2023-02-18T22:22:56.976Z,33.12
2023-02-18T22:28:02.417Z,33.70
2023-02-18T22:33:07.106Z,31.75
2023-02-18T22:38:11.783Z,32.78
2023-02-18T22:43:17.275Z,33.21
2023-02-18T22:48:21.942Z,32.36
2023-02-18T22:53:26.575Z,33.20
2023-02-18T22:58:31.349Z,33.95
2023-02-18T23:03:36.742Z,33.89
2023-02-18T23:08:42.454Z,34.24
2023-02-18T23:14:07.852Z,34.91
2023-02-18T23:19:12.453Z,35.34
2023-02-18T23:24:17.359Z,35.31
2023-02-18T23:29:22.678Z,35.23
2023-02-18T23:34:27.411Z,34.95
2023-02-18T23:39:32.045Z,35.01
2023-02-18T23:44:36.711Z,35.56
2023-02-18T23:49:40.849Z,35.69
2023-02-18T23:54:45.543Z,35.79
2023-02-18T23:59:50.207Z,35.50
